Time;durP1;ratioP1;P1;durP2;ratioP2;P2;SDS_P1;SDS_P2;PMS_P1;PMS_P2;Temp;Humidity;BMP_temperature;BMP_pressure;BME280_temperature;BME280_humidity;BME280_pressure;Samples;Min_cycle;Max_cycle;Signal;HPM_P1;HPM_P2
2023/10/24 00:00:36;;;;;;;4.22;2.28;;;12.30;99.90;;;;;;4949584;29;20027;-74
2023/10/24 00:03:02;;;;;;;5.47;2.53;;;12.30;99.90;;;;;;4950431;29;20028;-74
2023/10/24 00:05:29;;;;;;;6.25;2.30;;;12.30;99.90;;;;;;4951187;29;20126;-74
2023/10/24 00:07:55;;;;;;;3.17;2.40;;;12.30;99.90;;;;;;4942659;28;20047;-74
2023/10/24 00:10:22;;;;;;;5.03;2.00;;;12.30;99.90;;;;;;4949270;29;20031;-74
2023/10/24 00:12:48;;;;;;;5.45;2.60;;;12.30;99.90;;;;;;4942417;29;20032;-75
2023/10/24 00:15:13;;;;;;;10.57;2.35;;;12.30;99.90;;;;;;4940583;28;20041;-74
2023/10/24 00:17:39;;;;;;;1.77;1.35;;;12.40;99.90;;;;;;4946208;29;20027;-74
2023/10/24 00:20:06;;;;;;;3.13;1.65;;;12.40;99.90;;;;;;4946002;28;20116;-74
2023/10/24 00:22:31;;;;;;;3.88;1.75;;;12.40;99.90;;;;;;4942852;28;20387;-75
2023/10/24 00:24:57;;;;;;;3.78;2.30;;;12.50;99.90;;;;;;4933501;29;20039;-74
2023/10/24 00:27:23;;;;;;;2.80;1.90;;;12.40;99.90;;;;;;4942976;29;20031;-75
2023/10/24 00:29:50;;;;;;;5.72;1.92;;;12.50;99.90;;;;;;4952613;29;20042;-75
2023/10/24 00:32:16;;;;;;;3.17;1.83;;;12.50;99.90;;;;;;4945434;29;20042;-75
2023/10/24 00:34:41;;;;;;;4.13;2.42;;;12.50;99.90;;;;;;4951186;29;20391;-75
2023/10/24 00:37:07;;;;;;;5.95;2.90;;;12.50;99.90;;;;;;4957993;28;20082;-74
2023/10/24 00:39:34;;;;;;;3.65;2.35;;;12.50;99.90;;;;;;4936332;29;20050;-75
2023/10/24 00:42:01;;;;;;;4.90;2.58;;;12.50;99.90;;;;;;4941369;28;20055;-75
2023/10/24 00:44:27;;;;;;;4.00;2.33;;;12.50;99.90;;;;;;4946832;29;20115;-75
2023/10/24 00:46:54;;;;;;;5.07;2.35;;;12.50;99.90;;;;;;4964811;28;20492;-75
2023/10/24 00:49:20;;;;;;;5.95;2.30;;;12.50;99.90;;;;;;4941976;29;20460;-76
2023/10/24 00:51:46;;;;;;;5.10;2.15;;;12.50;99.90;;;;;;4949021;29;20023;-75
2023/10/24 00:54:12;;;;;;;7.43;3.08;;;12.40;99.90;;;;;;4947769;29;20059;-74
2023/10/24 00:56:39;;;;;;;3.53;2.70;;;12.40;99.90;;;;;;4951797;29;20035;-74
2023/10/24 00:59:06;;;;;;;4.28;2.58;;;12.40;99.90;;;;;;4952495;29;20677;-74
2023/10/24 01:01:32;;;;;;;5.10;2.25;;;12.30;99.90;;;;;;4951448;29;20483;-74
2023/10/24 01:03:59;;;;;;;6.75;2.10;;;12.30;99.90;;;;;;4936400;29;20400;-74
2023/10/24 01:06:26;;;;;;;3.17;2.30;;;12.30;99.90;;;;;;4960415;28;20042;-74
2023/10/24 01:08:52;;;;;;;7.30;2.30;;;12.20;99.90;;;;;;4946296;29;20472;-75
2023/10/24 01:11:18;;;;;;;3.08;2.20;;;12.20;99.90;;;;;;4944132;29;20459;-74
2023/10/24 01:13:44;;;;;;;5.07;2.90;;;12.20;99.90;;;;;;4950276;29;20036;-74
2023/10/24 01:16:10;;;;;;;4.75;2.60;;;12.20;99.90;;;;;;4947877;29;20112;-74
2023/10/24 01:18:36;;;;;;;5.88;2.58;;;12.20;99.90;;;;;;4964254;28;20035;-74
2023/10/24 01:21:02;;;;;;;4.32;2.35;;;12.20;99.90;;;;;;4952076;29;20035;-74
2023/10/24 01:23:31;;;;;;;8.18;2.72;;;12.20;99.90;;;;;;4953183;28;20035;-74
2023/10/24 01:25:58;;;;;;;6.28;2.90;;;12.20;99.90;;;;;;4939070;29;20452;-74
2023/10/24 01:28:26;;;;;;;3.75;2.38;;;12.20;99.90;;;;;;4961197;28;20111;-74
2023/10/24 01:30:52;;;;;;;7.20;3.35;;;12.20;99.90;;;;;;4948313;29;20632;-74
2023/10/24 01:33:21;;;;;;;9.38;3.10;;;12.20;99.90;;;;;;4963913;28;20069;-74
2023/10/24 01:35:47;;;;;;;4.85;2.45;;;12.20;99.90;;;;;;4951060;29;20039;-74
2023/10/24 01:38:13;;;;;;;6.75;3.15;;;12.30;99.90;;;;;;4948613;29;20032;-74
2023/10/24 01:40:38;;;;;;;13.43;2.80;;;12.30;99.90;;;;;;4963934;28;20062;-75
2023/10/24 01:43:04;;;;;;;6.68;2.63;;;12.30;99.90;;;;;;4951534;29;20019;-75
2023/10/24 01:45:30;;;;;;;8.23;2.80;;;12.30;99.90;;;;;;4951916;28;20039;-75
2023/10/24 01:47:56;;;;;;;4.97;2.58;;;12.30;99.90;;;;;;4953290;28;20019;-73
2023/10/24 01:50:22;;;;;;;4.47;2.78;;;12.30;99.90;;;;;;4951424;29;20046;-74
2023/10/24 01:52:48;;;;;;;6.45;3.58;;;12.30;99.90;;;;;;4951437;28;20027;-74
2023/10/24 01:55:13;;;;;;;4.60;3.13;;;12.40;99.90;;;;;;4929789;29;20031;-74
2023/10/24 01:57:39;;;;;;;8.48;2.88;;;12.40;99.90;;;;;;4950870;29;20023;-74
2023/10/24 02:00:06;;;;;;;5.43;3.13;;;12.40;99.90;;;;;;4947205;29;20176;-74
2023/10/24 02:02:31;;;;;;;7.97;3.25;;;12.30;99.90;;;;;;4948641;29;20113;-74
2023/10/24 02:04:57;;;;;;;3.03;2.25;;;12.30;99.90;;;;;;4966121;28;20070;-74
2023/10/24 02:07:25;;;;;;;9.65;4.00;;;12.30;99.90;;;;;;4951034;29;20460;-74
2023/10/24 02:09:51;;;;;;;5.50;2.72;;;12.30;99.90;;;;;;4944387;29;20041;-74
2023/10/24 02:12:17;;;;;;;4.18;2.30;;;12.30;99.90;;;;;;4931798;29;20395;-74
2023/10/24 02:14:42;;;;;;;3.85;2.38;;;12.30;99.90;;;;;;4937041;29;20031;-74
2023/10/24 02:17:08;;;;;;;4.65;2.17;;;12.30;99.90;;;;;;4957022;28;20036;-74
2023/10/24 02:19:34;;;;;;;3.63;2.63;;;12.30;99.90;;;;;;4964502;29;20043;-73
2023/10/24 02:22:00;;;;;;;9.48;2.47;;;12.30;99.90;;;;;;4976931;28;20187;-74
2023/10/24 02:24:25;;;;;;;5.95;3.22;;;12.20;99.90;;;;;;4967803;28;20039;-74
2023/10/24 02:26:51;;;;;;;4.35;2.53;;;12.20;99.90;;;;;;4956453;28;20031;-73
2023/10/24 02:29:17;;;;;;;5.68;2.88;;;12.20;99.90;;;;;;4954991;29;20031;-74
2023/10/24 02:31:43;;;;;;;7.28;2.45;;;12.20;99.90;;;;;;4953545;29;20491;-74
2023/10/24 02:34:08;;;;;;;5.10;2.50;;;12.20;99.90;;;;;;4954624;29;20062;-74
2023/10/24 02:36:34;;;;;;;4.80;3.05;;;12.10;99.90;;;;;;4955173;28;20121;-74
2023/10/24 02:39:00;;;;;;;10.05;3.55;;;12.20;99.90;;;;;;4954591;29;20477;-74
2023/10/24 02:41:26;;;;;;;4.82;2.72;;;12.20;99.90;;;;;;4950827;29;20031;-74
2023/10/24 02:43:52;;;;;;;3.95;2.40;;;12.20;99.90;;;;;;4955844;29;20023;-74
2023/10/24 02:46:17;;;;;;;6.55;2.80;;;12.20;99.90;;;;;;4955155;29;20475;-74
2023/10/24 02:48:43;;;;;;;2.53;1.80;;;12.20;99.90;;;;;;4956013;28;20043;-74
2023/10/24 02:51:09;;;;;;;4.28;2.47;;;12.20;99.90;;;;;;4950988;29;20039;-74
2023/10/24 02:53:34;;;;;;;4.53;2.53;;;12.10;99.90;;;;;;4952092;29;20039;-74
2023/10/24 02:56:02;;;;;;;7.53;3.28;;;12.20;99.90;;;;;;4953881;29;20078;-74
2023/10/24 02:58:28;;;;;;;4.30;2.58;;;12.20;99.90;;;;;;4938542;29;20055;-74
2023/10/24 03:00:54;;;;;;;4.47;2.42;;;12.20;99.90;;;;;;4954247;29;20520;-74
2023/10/24 03:03:20;;;;;;;9.25;3.55;;;12.20;99.90;;;;;;4947588;29;20078;-74
2023/10/24 03:05:46;;;;;;;7.53;3.30;;;12.30;99.90;;;;;;4968440;28;20035;-74
2023/10/24 03:08:12;;;;;;;7.32;3.33;;;12.30;99.90;;;;;;4950923;29;20046;-74
2023/10/24 03:10:43;;;;;;;3.88;2.78;;;12.30;99.90;;;;;;4945454;28;20047;-74
2023/10/24 03:13:09;;;;;;;8.40;3.08;;;12.30;99.90;;;;;;4945014;29;20051;-74
2023/10/24 03:15:35;;;;;;;4.50;2.47;;;12.30;99.90;;;;;;4966980;28;20071;-74
2023/10/24 03:18:02;;;;;;;4.95;3.10;;;12.30;99.90;;;;;;4953928;29;20034;-74
2023/10/24 03:20:28;;;;;;;4.68;3.45;;;12.30;99.90;;;;;;4937444;29;20035;-75
2023/10/24 03:22:57;;;;;;;9.98;3.42;;;12.30;99.90;;;;;;4935138;29;20070;-74
2023/10/24 03:25:27;;;;;;;6.03;2.90;;;12.30;99.90;;;;;;4965956;28;20185;-75
2023/10/24 03:27:54;;;;;;;5.72;3.13;;;12.30;99.90;;;;;;4927476;29;20027;-75
2023/10/24 03:30:21;;;;;;;8.15;3.35;;;12.30;99.90;;;;;;4949010;29;20031;-74
2023/10/24 03:32:47;;;;;;;9.35;3.17;;;12.30;99.90;;;;;;4938679;29;20035;-74
2023/10/24 03:35:14;;;;;;;4.15;2.85;;;12.20;99.90;;;;;;4955850;28;20031;-75
2023/10/24 03:37:41;;;;;;;5.93;3.25;;;12.20;99.90;;;;;;4974774;28;20118;-74
2023/10/24 03:40:08;;;;;;;5.95;3.25;;;12.20;99.90;;;;;;4940160;29;20040;-74
2023/10/24 03:42:34;;;;;;;5.07;3.20;;;12.20;99.90;;;;;;4975716;28;20038;-74
2023/10/24 03:45:00;;;;;;;7.88;3.72;;;12.20;99.90;;;;;;4961260;29;20062;-74
2023/10/24 03:47:25;;;;;;;7.13;3.80;;;12.20;99.90;;;;;;4939778;29;20031;-74
2023/10/24 03:49:51;;;;;;;5.57;2.70;;;12.20;99.90;;;;;;4968470;28;20435;-74
2023/10/24 03:52:18;;;;;;;6.45;2.95;;;12.20;99.90;;;;;;4953703;29;20031;-73
2023/10/24 03:54:44;;;;;;;11.68;4.13;;;12.20;99.90;;;;;;4961219;29;20027;-75
2023/10/24 03:57:10;;;;;;;4.78;2.67;;;12.20;99.90;;;;;;4956671;29;20381;-75
2023/10/24 03:59:35;;;;;;;5.68;2.83;;;12.20;99.90;;;;;;4950697;29;20492;-73
2023/10/24 04:02:01;;;;;;;5.90;2.80;;;12.20;99.90;;;;;;4955158;29;20046;-75
2023/10/24 04:04:29;;;;;;;10.45;3.50;;;12.20;99.90;;;;;;4945094;29;20110;-75
2023/10/24 04:06:56;;;;;;;5.65;3.58;;;12.30;99.90;;;;;;4945816;29;20096;-76
2023/10/24 04:09:21;;;;;;;7.40;4.40;;;12.30;99.90;;;;;;4952893;29;20043;-75
2023/10/24 04:11:47;;;;;;;6.50;3.33;;;12.30;99.90;;;;;;4953201;29;20409;-76
2023/10/24 04:14:13;;;;;;;3.95;2.40;;;12.30;99.90;;;;;;4932756;28;20103;-75
2023/10/24 04:16:38;;;;;;;6.50;3.42;;;12.30;99.90;;;;;;4953486;29;20039;-75
2023/10/24 04:19:04;;;;;;;5.32;2.38;;;12.30;99.90;;;;;;4953517;28;20039;-75
2023/10/24 04:21:30;;;;;;;3.95;2.65;;;12.30;99.90;;;;;;4950665;29;20031;-76
2023/10/24 04:23:56;;;;;;;8.85;2.92;;;12.30;99.90;;;;;;4952769;29;20027;-74
2023/10/24 04:26:21;;;;;;;5.30;2.63;;;12.40;99.90;;;;;;4953463;28;20027;-74
2023/10/24 04:28:48;;;;;;;4.68;3.00;;;12.40;99.90;;;;;;4936523;29;20039;-75
2023/10/24 04:31:13;;;;;;;4.78;2.55;;;12.40;99.90;;;;;;4953685;28;20114;-72
2023/10/24 04:33:40;;;;;;;6.63;3.92;;;12.30;99.90;;;;;;4952504;28;20110;-76
2023/10/24 04:36:10;;;;;;;5.57;2.95;;;12.30;99.90;;;;;;4942755;29;20039;-76
2023/10/24 04:38:36;;;;;;;6.00;3.35;;;12.30;99.90;;;;;;4949230;29;20031;-75
2023/10/24 04:41:02;;;;;;;11.38;4.75;;;12.20;99.90;;;;;;4948911;28;20543;-76
2023/10/24 04:43:28;;;;;;;7.05;3.30;;;12.20;99.90;;;;;;4949447;29;20127;-75
2023/10/24 04:45:53;;;;;;;10.13;3.20;;;12.20;99.90;;;;;;4951819;29;20027;-77
2023/10/24 04:48:19;;;;;;;7.20;2.78;;;12.20;99.90;;;;;;4954141;29;20062;-76
2023/10/24 04:50:45;;;;;;;9.82;3.42;;;12.30;99.90;;;;;;4951032;29;20027;-73
2023/10/24 04:53:10;;;;;;;5.93;3.42;;;12.20;99.90;;;;;;4934412;29;20050;-70
2023/10/24 04:55:36;;;;;;;6.32;3.38;;;12.20;99.90;;;;;;4942943;29;20039;-70
2023/10/24 04:58:03;;;;;;;5.18;3.22;;;12.20;99.90;;;;;;4940902;29;20143;-71
2023/10/24 05:00:29;;;;;;;4.95;2.97;;;12.20;99.90;;;;;;4949620;29;20513;-71
2023/10/24 05:02:55;;;;;;;5.50;2.83;;;12.30;99.90;;;;;;4942422;29;20024;-71
2023/10/24 05:05:21;;;;;;;6.10;3.17;;;12.40;99.90;;;;;;4948650;29;20399;-70
2023/10/24 05:07:46;;;;;;;8.07;5.40;;;12.30;99.90;;;;;;4945058;29;20060;-71
2023/10/24 05:10:12;;;;;;;12.00;3.90;;;12.30;99.90;;;;;;4951880;29;20062;-70
2023/10/24 05:12:38;;;;;;;9.82;2.97;;;12.30;99.90;;;;;;4943837;28;20169;-71
2023/10/24 05:15:04;;;;;;;10.27;6.10;;;12.40;99.90;;;;;;4946186;29;20110;-70
2023/10/24 05:17:31;;;;;;;4.07;3.25;;;12.40;99.90;;;;;;4943695;29;20032;-70
2023/10/24 05:19:59;;;;;;;6.50;4.15;;;12.40;99.90;;;;;;4951030;29;20082;-70
2023/10/24 05:22:25;;;;;;;5.85;3.25;;;12.40;99.90;;;;;;4943872;29;20082;-70
2023/10/24 05:24:51;;;;;;;3.92;2.58;;;12.30;99.90;;;;;;4950646;29;20035;-70
2023/10/24 05:27:17;;;;;;;5.45;3.28;;;12.30;99.90;;;;;;4952456;28;20033;-70
2023/10/24 05:29:43;;;;;;;6.88;3.35;;;12.30;99.90;;;;;;4952289;28;20114;-70
2023/10/24 05:32:09;;;;;;;7.45;3.78;;;12.30;99.90;;;;;;4952642;29;20027;-70
2023/10/24 05:34:35;;;;;;;7.15;3.53;;;12.20;99.90;;;;;;4952220;29;20081;-70
2023/10/24 05:37:00;;;;;;;4.38;2.88;;;12.20;99.90;;;;;;4952304;28;20038;-71
2023/10/24 05:39:28;;;;;;;5.07;3.65;;;12.30;99.90;;;;;;4952721;28;20377;-70
2023/10/24 05:41:54;;;;;;;5.50;3.58;;;12.30;99.90;;;;;;4952571;28;20460;-70
2023/10/24 05:44:20;;;;;;;7.13;3.35;;;12.40;99.90;;;;;;4950763;29;20035;-71
2023/10/24 05:46:46;;;;;;;5.32;3.20;;;12.40;99.90;;;;;;4951927;29;20479;-70
2023/10/24 05:49:12;;;;;;;6.07;3.75;;;12.30;99.90;;;;;;4951251;29;20712;-70
2023/10/24 05:51:38;;;;;;;4.15;2.97;;;12.30;99.90;;;;;;4949850;28;20043;-70
2023/10/24 05:54:04;;;;;;;5.43;3.33;;;12.40;99.90;;;;;;4949666;29;20054;-69
2023/10/24 05:56:34;;;;;;;8.38;3.20;;;12.30;99.90;;;;;;4955744;29;20113;-70
2023/10/24 05:59:00;;;;;;;7.00;2.83;;;12.30;99.90;;;;;;4949095;29;20098;-69
2023/10/24 06:01:26;;;;;;;5.80;3.45;;;12.30;99.90;;;;;;4958222;28;20791;-69
2023/10/24 06:03:51;;;;;;;6.60;3.97;;;12.40;99.90;;;;;;4949179;28;20024;-69
2023/10/24 06:06:17;;;;;;;5.28;3.60;;;12.40;99.90;;;;;;4954797;29;20113;-69
2023/10/24 06:08:44;;;;;;;8.70;3.95;;;12.40;99.90;;;;;;4956724;29;20035;-69
2023/10/24 06:11:11;;;;;;;6.55;3.05;;;12.50;99.90;;;;;;4956267;28;20031;-71
2023/10/24 06:13:37;;;;;;;4.85;3.13;;;12.50;99.90;;;;;;4953222;29;20126;-71
2023/10/24 06:16:06;;;;;;;4.68;3.20;;;12.40;99.90;;;;;;4952841;29;20122;-72
2023/10/24 06:18:33;;;;;;;9.20;4.65;;;12.40;99.90;;;;;;4955720;28;20035;-71
2023/10/24 06:21:02;;;;;;;8.88;3.78;;;12.40;99.90;;;;;;4948124;29;20051;-72
2023/10/24 06:23:28;;;;;;;11.48;3.85;;;12.50;99.90;;;;;;4956387;28;20031;-70
2023/10/24 06:25:55;;;;;;;7.53;3.88;;;12.50;99.90;;;;;;4954340;29;20031;-70
2023/10/24 06:28:21;;;;;;;5.75;3.95;;;12.50;99.90;;;;;;4951647;29;20062;-70
2023/10/24 06:30:47;;;;;;;8.10;4.53;;;12.50;99.90;;;;;;4954534;29;20157;-70
2023/10/24 06:33:13;;;;;;;5.95;3.50;;;12.60;99.90;;;;;;4949430;28;20023;-71
2023/10/24 06:35:38;;;;;;;6.20;3.58;;;12.60;99.90;;;;;;4956391;29;20058;-70
2023/10/24 06:38:04;;;;;;;7.60;3.55;;;12.60;99.90;;;;;;4951830;28;20464;-70
2023/10/24 06:40:30;;;;;;;6.43;3.47;;;12.60;99.90;;;;;;4952553;29;20377;-70
2023/10/24 06:42:56;;;;;;;5.05;3.67;;;12.60;99.90;;;;;;4956424;28;20035;-71
2023/10/24 06:45:21;;;;;;;5.85;3.13;;;12.60;99.90;;;;;;4955856;29;20538;-71
2023/10/24 06:47:47;;;;;;;9.77;3.78;;;12.70;99.90;;;;;;4970448;28;20031;-71
2023/10/24 06:50:13;;;;;;;6.05;3.20;;;12.60;99.90;;;;;;4955795;29;20035;-71
2023/10/24 06:52:41;;;;;;;7.30;4.03;;;12.70;99.90;;;;;;4954810;29;20049;-71
2023/10/24 06:55:08;;;;;;;5.15;3.35;;;12.70;99.90;;;;;;4955877;29;20435;-71
2023/10/24 06:57:34;;;;;;;7.00;3.72;;;12.70;99.90;;;;;;4955801;29;20050;-71
2023/10/24 07:00:00;;;;;;;8.07;3.95;;;12.60;99.90;;;;;;4955636;28;20686;-71
2023/10/24 07:02:25;;;;;;;6.90;3.70;;;12.60;99.90;;;;;;4948591;28;20732;-71
2023/10/24 07:04:51;;;;;;;6.72;3.47;;;12.70;99.90;;;;;;4954809;28;20027;-71
2023/10/24 07:07:19;;;;;;;7.13;4.15;;;12.60;99.90;;;;;;4955635;28;20428;-71
2023/10/24 07:09:44;;;;;;;7.57;3.70;;;12.60;99.90;;;;;;4947484;28;20106;-70
2023/10/24 07:12:10;;;;;;;4.82;2.88;;;12.60;99.90;;;;;;4964802;28;20110;-70
2023/10/24 07:14:36;;;;;;;11.85;4.55;;;12.60;99.90;;;;;;4948200;28;20040;-70
2023/10/24 07:17:01;;;;;;;6.78;3.42;;;12.60;99.90;;;;;;4955422;29;20423;-70
2023/10/24 07:19:27;;;;;;;7.72;3.60;;;12.60;99.90;;;;;;4955280;28;20483;-70
2023/10/24 07:21:53;;;;;;;4.82;3.20;;;12.70;99.90;;;;;;4955315;29;20015;-70
2023/10/24 07:24:19;;;;;;;5.88;3.47;;;12.70;99.90;;;;;;4955566;28;20146;-70
2023/10/24 07:26:44;;;;;;;8.13;3.55;;;12.70;99.90;;;;;;4954788;29;20475;-70
2023/10/24 07:29:10;;;;;;;6.65;4.80;;;12.80;99.90;;;;;;4955808;29;20034;-70
2023/10/24 07:31:36;;;;;;;10.07;4.38;;;12.70;99.90;;;;;;4953598;28;20046;-71
2023/10/24 07:34:02;;;;;;;8.68;2.78;;;12.70;99.90;;;;;;4955213;29;20361;-71
2023/10/24 07:36:30;;;;;;;8.50;3.45;;;12.60;99.90;;;;;;4953932;28;20038;-71
2023/10/24 07:39:00;;;;;;;4.50;2.33;;;12.60;99.90;;;;;;4946728;29;20038;-69
2023/10/24 07:41:26;;;;;;;7.13;4.38;;;12.50;99.90;;;;;;4952571;28;20387;-69
2023/10/24 07:43:52;;;;;;;7.68;4.95;;;12.50;99.90;;;;;;4953945;28;20019;-70
2023/10/24 07:46:18;;;;;;;9.82;4.82;;;12.60;99.90;;;;;;4952429;29;20046;-69
2023/10/24 07:48:49;;;;;;;8.55;3.75;;;12.60;99.90;;;;;;4954014;28;20035;-70
2023/10/24 07:51:15;;;;;;;8.30;5.57;;;12.60;99.90;;;;;;4954472;28;20110;-70
2023/10/24 07:53:41;;;;;;;10.52;4.85;;;12.50;99.90;;;;;;4952788;29;20142;-70
2023/10/24 07:56:06;;;;;;;8.15;5.20;;;12.60;99.90;;;;;;4947027;29;20039;-70
2023/10/24 07:58:32;;;;;;;11.60;5.82;;;12.60;99.90;;;;;;4953158;29;20039;-70
2023/10/24 08:00:58;;;;;;;9.10;5.00;;;12.60;99.90;;;;;;4947499;29;20103;-71
2023/10/24 08:03:24;;;;;;;10.65;5.53;;;12.60;99.90;;;;;;4954794;29;20098;-70
2023/10/24 08:05:50;;;;;;;7.50;4.35;;;12.60;99.90;;;;;;4953939;29;20035;-70
2023/10/24 08:08:16;;;;;;;8.43;4.70;;;12.60;99.90;;;;;;4959048;29;20023;-70
2023/10/24 08:10:42;;;;;;;10.25;6.20;;;12.50;99.90;;;;;;4960223;29;20031;-71
2023/10/24 08:13:08;;;;;;;7.93;4.35;;;12.50;99.90;;;;;;4961971;29;20066;-70
2023/10/24 08:15:34;;;;;;;10.00;4.80;;;12.50;99.90;;;;;;4960248;28;20027;-70
2023/10/24 08:17:59;;;;;;;10.10;4.57;;;12.50;99.90;;;;;;4960095;28;20034;-70
2023/10/24 08:20:26;;;;;;;6.50;3.72;;;12.50;99.90;;;;;;4958129;29;20119;-70
2023/10/24 08:22:53;;;;;;;10.60;5.18;;;12.50;99.90;;;;;;4959549;28;20078;-71
2023/10/24 08:25:18;;;;;;;7.85;4.15;;;12.50;99.90;;;;;;4958902;28;20024;-69
2023/10/24 08:27:45;;;;;;;5.03;3.15;;;12.50;99.90;;;;;;4956700;28;20095;-70
2023/10/24 08:30:11;;;;;;;8.18;4.70;;;12.50;99.90;;;;;;4951516;29;20050;-70
2023/10/24 08:32:37;;;;;;;6.95;4.50;;;12.50;99.90;;;;;;4948965;29;20102;-70
2023/10/24 08:35:03;;;;;;;9.23;3.53;;;12.60;99.90;;;;;;4957644;28;20081;-70
2023/10/24 08:37:29;;;;;;;11.65;5.45;;;12.50;99.90;;;;;;4959882;28;20082;-70
2023/10/24 08:39:55;;;;;;;11.63;4.60;;;12.50;99.90;;;;;;4947918;29;20031;-70
2023/10/24 08:42:22;;;;;;;7.68;4.03;;;12.60;99.90;;;;;;4953930;28;20098;-70
2023/10/24 08:44:49;;;;;;;5.85;3.20;;;12.60;99.90;;;;;;4952627;29;20054;-70
2023/10/24 08:47:16;;;;;;;6.18;3.53;;;12.60;99.90;;;;;;4940427;29;20024;-75
2023/10/24 08:49:42;;;;;;;8.48;4.15;;;12.60;99.90;;;;;;4952307;29;20031;-70
2023/10/24 08:52:09;;;;;;;4.80;2.55;;;12.60;99.90;;;;;;4954056;29;20042;-70
2023/10/24 08:54:35;;;;;;;8.02;4.30;;;12.60;99.90;;;;;;4951776;29;20105;-70
2023/10/24 08:57:03;;;;;;;5.80;3.60;;;12.60;99.90;;;;;;4952049;29;20511;-70
2023/10/24 08:59:34;;;;;;;6.47;4.10;;;12.60;99.90;;;;;;4949092;29;20047;-70
2023/10/24 09:01:59;;;;;;;;;;;12.70;99.90;;;;;;4942255;28;20028;-70
2023/10/24 09:04:27;;;;;;;7.28;4.13;;;12.70;99.90;;;;;;4949897;29;19910;-70
2023/10/24 09:06:53;;;;;;;8.43;4.35;;;12.70;99.90;;;;;;4951968;29;20400;-71
2023/10/24 09:09:19;;;;;;;6.75;3.75;;;12.70;99.90;;;;;;4949125;29;20026;-70
2023/10/24 09:12:07;;;;;;;7.57;4.20;;;12.80;99.90;;;;;;4952389;29;20031;-70
2023/10/24 09:14:32;;;;;;;7.72;4.03;;;12.80;99.90;;;;;;4945274;29;20065;-70
2023/10/24 09:17:00;;;;;;;5.90;4.13;;;12.80;99.90;;;;;;4954617;28;20369;-71
2023/10/24 09:19:30;;;;;;;6.35;3.15;;;12.80;99.90;;;;;;4952790;29;20031;-69
2023/10/24 09:22:02;;;;;;;8.25;3.83;;;12.80;99.90;;;;;;4953942;28;20102;-69
2023/10/24 09:24:28;;;;;;;6.28;3.45;;;12.80;99.90;;;;;;4948578;29;20126;-69
2023/10/24 09:26:55;;;;;;;7.63;3.53;;;12.80;99.90;;;;;;4952495;28;20066;-69
2023/10/24 09:29:27;;;;;;;8.27;3.95;;;12.80;99.90;;;;;;4948856;29;20020;-69
2023/10/24 09:31:57;;;;;;;8.02;3.97;;;12.80;99.90;;;;;;4950633;29;20063;-71
2023/10/24 09:34:23;;;;;;;7.75;3.90;;;12.80;99.90;;;;;;4943941;29;20030;-70
2023/10/24 09:36:49;;;;;;;5.93;4.22;;;12.80;99.90;;;;;;4951311;29;20038;-71
2023/10/24 09:39:16;;;;;;;7.15;3.67;;;12.80;99.90;;;;;;4951697;29;20023;-71
2023/10/24 09:41:46;;;;;;;7.82;4.00;;;12.80;99.90;;;;;;4951310;29;20411;-69
2023/10/24 09:44:12;;;;;;;5.72;3.20;;;12.80;99.90;;;;;;4951903;29;20031;-69
2023/10/24 09:46:38;;;;;;;8.23;3.85;;;12.80;99.90;;;;;;4950883;29;20027;-69
2023/10/24 09:49:06;;;;;;;6.45;3.97;;;12.80;99.90;;;;;;4950627;29;20035;-69
2023/10/24 09:51:37;;;;;;;7.38;3.65;;;12.90;99.90;;;;;;4948798;29;20045;-69
2023/10/24 09:54:05;;;;;;;9.43;4.80;;;12.80;99.90;;;;;;4947785;29;20036;-69
2023/10/24 09:56:32;;;;;;;4.65;3.47;;;12.80;99.90;;;;;;4948149;29;20533;-69
2023/10/24 09:58:59;;;;;;;8.02;4.45;;;12.80;99.90;;;;;;4925857;28;20439;-69
2023/10/24 10:01:29;;;;;;;9.35;4.28;;;12.90;99.90;;;;;;4952551;28;20023;-68
2023/10/24 10:04:01;;;;;;;7.00;4.07;;;12.90;99.90;;;;;;4952266;28;20546;-67
2023/10/24 10:06:27;;;;;;;13.98;4.30;;;12.90;99.90;;;;;;4942920;28;20082;-68
2023/10/24 10:08:58;;;;;;;11.05;4.40;;;12.90;99.90;;;;;;4950737;29;20086;-68
2023/10/24 10:11:30;;;;;;;11.75;4.32;;;13.00;99.90;;;;;;4950839;29;20038;-68
2023/10/24 10:14:43;;;;;;;6.10;3.15;;;13.10;99.90;;;;;;4947840;29;20047;-67
2023/10/24 10:17:27;;;;;;;5.78;3.65;;;13.00;99.90;;;;;;4945742;29;20121;-68
2023/10/24 10:20:18;;;;;;;7.07;3.30;;;13.10;99.90;;;;;;4950883;29;20031;-68
2023/10/24 10:23:11;;;;;;;10.60;4.80;;;13.10;99.90;;;;;;4952558;29;20027;-68
2023/10/24 10:26:25;;;;;;;5.38;3.45;;;13.00;99.90;;;;;;4951760;29;20043;-68
2023/10/24 10:29:01;;;;;;;5.22;3.17;;;13.00;99.90;;;;;;4947534;29;20043;-68
2023/10/24 10:31:48;;;;;;;7.65;4.35;;;13.00;99.90;;;;;;4952263;29;20031;-70
2023/10/24 10:34:14;;;;;;;5.68;3.83;;;13.00;99.90;;;;;;4952467;28;20057;-67
2023/10/24 10:36:54;;;;;;;7.13;4.15;;;13.00;99.90;;;;;;4948336;29;20484;-68
2023/10/24 10:39:20;;;;;;;6.15;3.30;;;12.90;99.90;;;;;;4946222;28;20066;-69
2023/10/24 10:41:46;;;;;;;5.97;4.35;;;13.00;99.90;;;;;;4947232;29;20063;-67
2023/10/24 10:44:43;;;;;;;7.70;4.10;;;13.00;99.90;;;;;;4955758;29;20027;-67
2023/10/24 10:47:14;;;;;;;5.63;3.50;;;13.00;99.90;;;;;;4954355;29;20058;-68
2023/10/24 10:49:56;;;;;;;5.07;3.38;;;13.00;99.90;;;;;;4954283;29;20114;-68
2023/10/24 10:52:55;;;;;;;4.80;2.65;;;13.00;99.90;;;;;;4955936;28;20424;-69
2023/10/24 10:55:34;;;;;;;8.27;3.35;;;13.00;99.90;;;;;;4955260;28;20039;-68
2023/10/24 10:58:49;;;;;;;5.25;3.55;;;13.00;99.90;;;;;;4954462;28;20042;-69
2023/10/24 11:01:25;;;;;;;8.93;4.13;;;13.00;99.90;;;;;;4955509;28;20062;-69
2023/10/24 11:03:51;;;;;;;6.22;3.38;;;13.00;99.90;;;;;;4954304;29;20035;-68
2023/10/24 11:06:18;;;;;;;5.18;3.55;;;13.00;99.90;;;;;;4954871;28;20046;-69
2023/10/24 11:09:04;;;;;;;6.53;3.75;;;13.00;99.90;;;;;;4954080;29;20031;-69
2023/10/24 11:11:30;;;;;;;6.03;3.10;;;13.10;99.90;;;;;;4948532;29;20040;-68
2023/10/24 11:14:15;;;;;;;8.25;3.70;;;13.10;99.90;;;;;;4955477;29;20074;-68
2023/10/24 11:16:42;;;;;;;7.82;3.97;;;13.00;99.90;;;;;;4953133;29;20051;-69
2023/10/24 11:19:20;;;;;;;6.18;3.42;;;13.00;99.90;;;;;;4949146;29;20480;-68
2023/10/24 11:21:52;;;;;;;6.35;3.25;;;13.00;99.90;;;;;;4952271;29;20039;-68
2023/10/24 11:24:21;;;;;;;5.78;3.88;;;13.00;99.90;;;;;;4950486;29;20019;-69
2023/10/24 11:26:48;;;;;;;10.63;4.32;;;13.00;99.90;;;;;;4952358;29;20491;-69
2023/10/24 11:29:15;;;;;;;5.70;3.83;;;13.10;99.90;;;;;;4953886;29;20369;-69
2023/10/24 11:31:44;;;;;;;7.88;4.45;;;13.20;99.90;;;;;;4954318;28;20299;-69
2023/10/24 11:34:13;;;;;;;5.45;3.97;;;13.10;99.90;;;;;;4950458;29;20475;-69
2023/10/24 11:36:45;;;;;;;5.90;3.65;;;13.10;99.90;;;;;;4951687;29;20174;-69
2023/10/24 11:39:14;;;;;;;9.85;3.22;;;13.10;99.90;;;;;;4951775;28;20046;-69
2023/10/24 11:41:42;;;;;;;8.20;3.90;;;13.10;99.90;;;;;;4952436;29;20042;-68
2023/10/24 11:44:10;;;;;;;5.43;3.30;;;13.10;99.90;;;;;;4952787;29;20558;-68
2023/10/24 11:46:39;;;;;;;9.95;4.80;;;13.20;99.90;;;;;;4957038;28;20148;-68
2023/10/24 11:49:05;;;;;;;7.60;4.32;;;13.20;99.90;;;;;;4953723;29;20031;-68
2023/10/24 11:51:30;;;;;;;7.00;3.40;;;13.20;99.90;;;;;;4953516;28;20090;-68
2023/10/24 11:54:04;;;;;;;7.88;3.70;;;13.30;99.90;;;;;;4953357;29;20040;-68
2023/10/24 11:56:31;;;;;;;8.48;4.63;;;13.30;99.90;;;;;;4953890;29;20047;-67
2023/10/24 11:58:58;;;;;;;7.82;4.47;;;13.20;99.90;;;;;;4953046;29;20031;-68
2023/10/24 12:01:28;;;;;;;6.65;3.58;;;13.30;99.90;;;;;;4952702;29;20051;-67
2023/10/24 12:03:59;;;;;;;5.78;3.97;;;13.30;99.90;;;;;;4952644;29;20158;-68
2023/10/24 12:06:27;;;;;;;5.22;4.00;;;13.30;99.90;;;;;;4949435;29;20020;-67
2023/10/24 12:08:54;;;;;;;7.78;3.28;;;13.30;99.90;;;;;;4968118;28;20549;-68
2023/10/24 12:11:23;;;;;;;7.43;3.22;;;13.40;99.90;;;;;;4948987;29;20053;-68
2023/10/24 12:13:50;;;;;;;6.65;3.65;;;13.30;99.90;;;;;;4951842;29;20033;-68
2023/10/24 12:16:16;;;;;;;8.27;4.65;;;13.40;99.90;;;;;;4952048;29;20503;-68
2023/10/24 12:18:43;;;;;;;10.20;4.25;;;13.50;99.90;;;;;;4950788;29;20046;-67
2023/10/24 12:21:13;;;;;;;7.07;4.43;;;13.50;99.90;;;;;;4949193;29;20102;-68
2023/10/24 12:23:39;;;;;;;6.00;3.97;;;13.60;99.90;;;;;;4965824;28;20063;-67
2023/10/24 12:26:05;;;;;;;7.45;3.90;;;13.70;99.90;;;;;;4951407;29;20482;-68
2023/10/24 12:28:32;;;;;;;4.93;3.28;;;13.60;99.90;;;;;;4954140;28;20035;-68
2023/10/24 12:30:58;;;;;;;10.50;4.40;;;13.80;99.90;;;;;;4951673;29;20024;-69
2023/10/24 12:33:25;;;;;;;8.30;3.80;;;13.80;99.90;;;;;;4948991;29;20039;-69
2023/10/24 12:35:51;;;;;;;4.93;3.72;;;13.90;99.90;;;;;;4944779;29;20392;-70
2023/10/24 12:38:17;;;;;;;6.45;4.15;;;13.90;99.90;;;;;;4953501;28;20122;-69
2023/10/24 12:40:44;;;;;;;5.22;3.60;;;13.90;99.90;;;;;;4953054;28;20183;-69
2023/10/24 12:43:11;;;;;;;5.82;3.38;;;13.90;99.90;;;;;;4952673;29;20031;-69
2023/10/24 12:45:37;;;;;;;8.98;4.07;;;13.90;99.90;;;;;;4952689;29;20383;-69
2023/10/24 12:48:10;;;;;;;9.48;4.25;;;13.90;99.90;;;;;;4949072;29;20026;-69